Airfield :
LOGIN :

Register | Disclaimer

   EN    FR    IT 

 










Legend :    VFR   Marginal VFR   IFR   Intensive IFR   Very Intensive IFR
Visi :
Ceiling :
>= 8 km
>= 3000ft
5 to 8 km
1000 to 3000 ft
1500m to 5 km
500 to 1000 ft
800 to 1500m
200 to 500 ft
< 800m
< 200 ft
Symbols :   Thunderstorms  Fog  Heavy snow  Heavy precipitations  Wind > 20 kt
SIGMETs :     Misc.  Thunderstorms  Icing  Turbulence  Mountain Waves  Volcanic Ashes







- Airport Elevation : 39 ft
- IATA code : TRS


LIPQ - Friuli Venezia Giulia Apt. Trieste

CURRENT METAR :
  • 231450Z 24006KT CAVOK 17/09 Q1012

EXPIRED METARs :
  • 231420Z 24005KT 190V270 CAVOK 18/09 Q1012
  • 231350Z VRB04KT CAVOK 18/08 Q1012
  • 231320Z VRB03KT CAVOK 18/08 Q1012
  • 231250Z VRB03KT CAVOK 18/07 Q1012
  • 231220Z 20003KT 130V250 9999 FEW050 17/08 Q1012

TAF TAF LIPQ
Valid from the 23 at 12:00 until the 24 at 12:00 UTC


231100Z 2312/2412 VRB05KT CAVOK
BECMG 2319/2321 01010KT
BECMG 2409/2411 VRB05KT
No reported NOTAMs for that airfield.
1 SIGMET reported for the Milano FIR (LIMM) :
 
Severe turbulence
LIMM SIGMET 10 VALID 231505/231705 LIIP
LIMM MILANO FIR SEV TURB FCST WI N4614 E01005 - N4435 E01121 - N4326 E01313 - N4330 E01429 - N4429 E01319 - N4517 E01258 - N4535 E01354 - N4633 E01337 - N4706 E01209 - N4650 E01026 - N4634 E01004 - N4614 E01005 ABV FL220 MOV E NC=



MET'MAP, your aeronautical weather chart ! - Copyright ORBIFLY December 2007 - Disclaimer

ORBIFLY MET'MAP TEAM :

Programming & Development : Alexandra Zaïnal
Concept & Development : Baudouin d'Aumeries
Co-Development & Prog : Marc-Olivier Méhu
Technical & hardware support : Manuel Goepfert

Contact : metmap@orbifly.com




SOURCES & CREDITS :

   NOAA